Apple Grove, North Carolina
Current Conditions -  °F | °C
As of 10:35 PM on Friday 24 Oct 2014 (Local Time) from KGEV Reporting Station
Clear Clear  
Wind Chill: 51°   Ceiling: Unl
Heat Index: 51°   Visibility: 10mi
Dew Point: 28°   Wind: 7mph
Humidity: 41%   Direction: 300°WNW
Pressure: 30.06"   Gusts: NA
Location:  36.524°N, 81.538°W
Report Text: KGEV 250235Z AUTO 30006KT 10SM CLR 11/M02 A3006 RMK AO2 T01051024
Loading
Personal Weather Stations






























Interactive Weather Map New forecast layout! Learn more

10-Day Weather Forecast

Advertisements
Track Severe Weather on mobile